Time;durP1;ratioP1;P1;durP2;ratioP2;P2;SDS_P1;SDS_P2;PMS_P1;PMS_P2;Temp;Humidity;BMP_temperature;BMP_pressure;BME280_temperature;BME280_humidity;BME280_pressure;Samples;Min_cycle;Max_cycle;Signal;HPM_P1;HPM_P2
2021/08/31 00:02:24;;;;;;;57.67;26.83;;;12.90;92.60;;;;;;5074682;28;20158;-73
2021/08/31 00:04:49;;;;;;;54.08;26.80;;;12.90;92.40;;;;;;5067448;28;20040;-74
2021/08/31 00:07:15;;;;;;;49.10;25.77;;;12.90;92.50;;;;;;5075227;28;20024;-73
2021/08/31 00:09:41;;;;;;;49.15;25.70;;;12.90;92.60;;;;;;5063098;28;20443;-73
2021/08/31 00:12:07;;;;;;;48.45;25.40;;;12.90;92.50;;;;;;5074112;28;20031;-73
2021/08/31 00:14:35;;;;;;;53.80;26.95;;;12.90;92.50;;;;;;5074910;28;20320;-73
2021/08/31 00:17:02;;;;;;;58.38;27.38;;;12.90;92.80;;;;;;5059035;28;20261;-73
2021/08/31 00:19:27;;;;;;;50.15;25.08;;;12.90;92.70;;;;;;5066315;28;20320;-74
2021/08/31 00:21:53;;;;;;;52.40;26.77;;;12.90;92.30;;;;;;5058193;28;20092;-73
2021/08/31 00:24:19;;;;;;;58.78;27.58;;;12.90;92.50;;;;;;5067167;28;20034;-73
2021/08/31 00:26:44;;;;;;;46.03;25.75;;;12.90;92.30;;;;;;5071086;28;20034;-73
2021/08/31 00:29:10;;;;;;;48.03;25.23;;;12.90;92.30;;;;;;5070140;28;20024;-72
2021/08/31 00:31:35;;;;;;;65.82;29.63;;;12.90;92.60;;;;;;5069514;28;20029;-73
2021/08/31 00:34:01;;;;;;;50.28;27.35;;;12.90;92.70;;;;;;5071121;28;20038;-72
2021/08/31 00:36:27;;;;;;;56.10;27.35;;;12.90;92.30;;;;;;5056848;28;20040;-72
2021/08/31 00:38:56;;;;;;;53.83;26.45;;;12.90;92.50;;;;;;5060076;28;20025;-73
2021/08/31 00:41:25;;;;;;;50.83;26.50;;;12.90;92.60;;;;;;5075922;28;20430;-72
2021/08/31 00:43:52;;;;;;;46.67;26.00;;;12.90;92.30;;;;;;5075138;28;20028;-74
2021/08/31 00:46:19;;;;;;;72.75;29.77;;;12.90;92.20;;;;;;5065510;28;20027;-73
2021/08/31 00:48:45;;;;;;;44.83;25.52;;;12.90;92.60;;;;;;5073364;28;20028;-74
2021/08/31 00:51:12;;;;;;;68.57;29.27;;;12.90;92.30;;;;;;5071340;28;20025;-74
2021/08/31 00:53:39;;;;;;;82.85;32.05;;;12.90;92.30;;;;;;5058176;28;20084;-73
2021/08/31 00:56:11;;;;;;;75.53;31.85;;;12.90;92.40;;;;;;5059647;28;20108;-74
2021/08/31 00:58:41;;;;;;;102.95;35.20;;;12.80;92.40;;;;;;5066770;28;20028;-73
2021/08/31 01:01:07;;;;;;;93.85;31.70;;;12.80;92.40;;;;;;5070679;28;20024;-73
2021/08/31 01:03:35;;;;;;;70.22;30.13;;;12.80;92.20;;;;;;5068790;28;20021;-73
2021/08/31 01:06:02;;;;;;;67.35;29.58;;;12.80;92.30;;;;;;5064267;28;20072;-73
2021/08/31 01:08:31;;;;;;;83.38;29.77;;;12.80;92.30;;;;;;5063162;28;20021;-73
2021/08/31 01:11:01;;;;;;;74.30;30.17;;;12.80;92.10;;;;;;5075135;28;20020;-73
2021/08/31 01:13:34;;;;;;;75.60;31.40;;;12.80;92.10;;;;;;5065411;28;20032;-73
2021/08/31 01:16:00;;;;;;;57.80;28.80;;;12.90;92.00;;;;;;5071372;28;20028;-73
2021/08/31 01:18:27;;;;;;;52.50;27.83;;;12.80;92.20;;;;;;5063519;28;20031;-73
2021/08/31 01:20:54;;;;;;;60.22;29.27;;;12.80;92.20;;;;;;5059381;28;20036;-73
2021/08/31 01:23:22;;;;;;;53.17;27.45;;;12.80;92.20;;;;;;5065448;28;20036;-73
2021/08/31 01:25:48;;;;;;;51.25;27.75;;;12.80;92.00;;;;;;5077280;28;20417;-73
2021/08/31 01:28:33;;;;;;;51.83;26.33;;;12.80;91.90;;;;;;5073554;28;20042;-73
2021/08/31 01:31:00;;;;;;;60.65;27.05;;;12.80;92.10;;;;;;5075196;28;20441;-74
2021/08/31 01:33:27;;;;;;;66.47;28.27;;;12.80;91.80;;;;;;5074262;28;20036;-73
2021/08/31 01:35:54;;;;;;;41.25;23.83;;;12.80;92.10;;;;;;5077965;28;20028;-73
2021/08/31 01:38:20;;;;;;;47.55;24.40;;;12.80;91.90;;;;;;5071541;28;20029;-73
2021/08/31 01:40:46;;;;;;;44.08;24.35;;;12.80;92.20;;;;;;5065920;28;20029;-73
2021/08/31 01:43:23;;;;;;;43.08;23.65;;;12.80;92.20;;;;;;5058773;28;20109;-73
2021/08/31 01:45:49;;;;;;;42.33;22.90;;;12.80;92.10;;;;;;5062863;28;20028;-73
2021/08/31 01:48:15;;;;;;;46.75;24.52;;;12.80;92.20;;;;;;5076893;28;20039;-72
2021/08/31 01:50:41;;;;;;;39.78;24.13;;;12.80;92.10;;;;;;5058748;28;20025;-74
2021/08/31 01:53:07;;;;;;;42.90;23.05;;;12.80;92.20;;;;;;5071725;28;20032;-74
2021/08/31 01:55:33;;;;;;;39.08;22.10;;;12.80;92.20;;;;;;5074955;28;20070;-73
2021/08/31 01:57:59;;;;;;;41.00;22.23;;;12.70;92.30;;;;;;5072549;28;20039;-73
2021/08/31 02:00:25;;;;;;;34.63;21.70;;;12.70;92.40;;;;;;5062073;28;20021;-73
2021/08/31 02:02:51;;;;;;;43.85;23.65;;;12.70;92.30;;;;;;5078274;28;20044;-73
2021/08/31 02:05:16;;;;;;;39.67;22.23;;;12.70;92.10;;;;;;5058374;28;20052;-73
2021/08/31 02:07:42;;;;;;;41.10;23.08;;;12.70;92.40;;;;;;5058457;28;20033;-73
2021/08/31 02:10:08;;;;;;;43.60;22.75;;;12.70;92.50;;;;;;5071896;28;20033;-73
2021/08/31 02:12:34;;;;;;;38.58;21.92;;;12.70;92.30;;;;;;5077912;28;20032;-73
2021/08/31 02:15:00;;;;;;;42.95;22.73;;;12.70;92.20;;;;;;5078217;28;20317;-73
2021/08/31 02:17:25;;;;;;;34.83;21.33;;;12.70;92.50;;;;;;5067394;28;20031;-73
2021/08/31 02:19:51;;;;;;;39.45;22.58;;;12.70;92.40;;;;;;5071046;28;20025;-73
2021/08/31 02:22:17;;;;;;;41.92;23.27;;;12.70;92.30;;;;;;5076200;28;20070;-73
2021/08/31 02:24:42;;;;;;;38.72;22.73;;;12.70;92.20;;;;;;5065925;28;20101;-72
2021/08/31 02:27:08;;;;;;;38.55;23.33;;;12.80;92.30;;;;;;5062410;28;20036;-73
2021/08/31 02:29:34;;;;;;;42.90;23.63;;;12.70;92.70;;;;;;5065702;28;20021;-73
2021/08/31 02:32:00;;;;;;;39.25;23.33;;;12.70;92.50;;;;;;5071623;28;20162;-72
2021/08/31 02:34:25;;;;;;;45.33;24.02;;;12.70;92.80;;;;;;5077899;28;20463;-73
2021/08/31 02:36:51;;;;;;;38.47;22.27;;;12.70;92.60;;;;;;5077237;28;20105;-72
2021/08/31 02:39:17;;;;;;;41.95;23.73;;;12.70;92.50;;;;;;5070790;28;20426;-73
2021/08/31 02:41:44;;;;;;;43.90;23.95;;;12.70;92.60;;;;;;5056818;28;20121;-72
2021/08/31 02:44:10;;;;;;;53.97;25.70;;;12.70;92.50;;;;;;5060297;28;20025;-73
2021/08/31 02:46:36;;;;;;;52.95;26.48;;;12.70;92.70;;;;;;5070175;28;20027;-73
2021/08/31 02:49:01;;;;;;;36.47;22.73;;;12.70;92.70;;;;;;5073157;28;20112;-73
2021/08/31 02:51:27;;;;;;;44.72;24.35;;;12.70;92.60;;;;;;5064313;28;20100;-73
2021/08/31 02:53:53;;;;;;;59.42;27.55;;;12.70;92.50;;;;;;5072720;28;20036;-73
2021/08/31 02:56:18;;;;;;;63.92;26.35;;;12.70;92.60;;;;;;5071573;28;20028;-73
2021/08/31 02:58:44;;;;;;;63.35;26.60;;;12.70;92.50;;;;;;5076727;28;20498;-73
2021/08/31 03:03:53;;;;;;;78.03;27.88;;;12.70;92.30;;;;;;5064026;28;20052;-74
2021/08/31 03:06:19;;;;;;;106.22;30.98;;;12.70;92.30;;;;;;5067771;28;20390;-74
2021/08/31 03:08:48;;;;;;;64.40;28.05;;;12.70;92.30;;;;;;5075297;28;20406;-73
2021/08/31 03:11:13;;;;;;;90.65;28.73;;;12.70;92.30;;;;;;5071040;28;20036;-73
2021/08/31 03:13:39;;;;;;;83.32;26.92;;;12.70;92.10;;;;;;5076064;28;20363;-74
2021/08/31 03:16:05;;;;;;;112.22;27.40;;;12.70;92.20;;;;;;5069229;28;20039;-74
2021/08/31 03:18:30;;;;;;;130.25;26.02;;;12.70;92.30;;;;;;5065060;28;20436;-74
2021/08/31 03:20:56;;;;;;;57.22;23.60;;;12.70;92.30;;;;;;5076931;28;20043;-74
2021/08/31 03:23:21;;;;;;;95.47;29.17;;;12.60;92.20;;;;;;5074218;28;20029;-74
2021/08/31 03:25:47;;;;;;;68.53;25.77;;;12.70;92.00;;;;;;5069709;28;20414;-74
2021/08/31 03:28:13;;;;;;;80.95;26.48;;;12.70;92.10;;;;;;5056737;28;20033;-73
2021/08/31 03:30:39;;;;;;;89.63;26.13;;;12.70;92.00;;;;;;5068135;28;20025;-73
2021/08/31 03:33:05;;;;;;;64.72;28.27;;;12.60;92.30;;;;;;5075621;28;20032;-72
2021/08/31 03:35:30;;;;;;;68.47;25.75;;;12.60;92.00;;;;;;5068229;28;20034;-73
2021/08/31 03:37:56;;;;;;;134.90;30.20;;;12.60;92.00;;;;;;5074107;28;20381;-72
2021/08/31 03:40:22;;;;;;;58.00;27.85;;;12.70;91.90;;;;;;5073039;28;20045;-74
2021/08/31 03:42:47;;;;;;;67.65;27.48;;;12.60;91.90;;;;;;5076173;28;20048;-73
2021/08/31 03:45:14;;;;;;;49.05;24.83;;;12.70;91.60;;;;;;5068218;28;20056;-74
2021/08/31 03:47:40;;;;;;;53.13;26.38;;;12.70;91.80;;;;;;5056718;28;20514;-74
2021/08/31 03:50:06;;;;;;;50.60;26.27;;;12.70;91.80;;;;;;5065796;28;20075;-74
2021/08/31 03:52:32;;;;;;;78.32;29.60;;;12.70;92.00;;;;;;5059718;28;20314;-74
2021/08/31 03:54:58;;;;;;;62.40;27.75;;;12.70;92.00;;;;;;5064933;28;20039;-74
2021/08/31 03:57:23;;;;;;;50.67;25.85;;;12.70;91.90;;;;;;5054465;28;20025;-74
2021/08/31 03:59:49;;;;;;;56.83;28.63;;;12.70;91.80;;;;;;5068230;28;20020;-74
2021/08/31 04:02:15;;;;;;;51.70;24.60;;;12.70;91.80;;;;;;5072998;28;20039;-73
2021/08/31 04:04:41;;;;;;;47.58;24.50;;;12.70;91.80;;;;;;5061284;28;20052;-73
2021/08/31 04:07:07;;;;;;;62.83;27.60;;;12.60;92.00;;;;;;5071656;28;20039;-74
2021/08/31 04:09:32;;;;;;;51.80;26.38;;;12.60;91.70;;;;;;5065490;28;20024;-74
2021/08/31 04:11:58;;;;;;;38.65;23.30;;;12.70;91.70;;;;;;5066261;28;20033;-73
2021/08/31 04:14:29;;;;;;;68.07;27.90;;;12.60;92.00;;;;;;5073108;28;20046;-74
2021/08/31 04:16:55;;;;;;;51.22;26.35;;;12.60;92.10;;;;;;5067418;28;20061;-74
2021/08/31 04:19:21;;;;;;;67.82;27.90;;;12.60;91.80;;;;;;5069787;28;20480;-74
2021/08/31 04:21:46;;;;;;;50.80;27.15;;;12.70;91.80;;;;;;5057953;28;20035;-74
2021/08/31 04:24:12;;;;;;;41.28;25.58;;;12.60;91.90;;;;;;5057550;28;20095;-74
2021/08/31 04:26:37;;;;;;;58.28;27.58;;;12.70;91.80;;;;;;5073525;28;20032;-74
2021/08/31 04:29:06;;;;;;;43.65;24.45;;;12.60;92.00;;;;;;5064264;28;20056;-73
2021/08/31 04:31:32;;;;;;;55.25;27.10;;;12.60;91.80;;;;;;5065734;28;20033;-74
2021/08/31 04:33:57;;;;;;;55.72;26.13;;;12.60;92.10;;;;;;5075912;28;20023;-74
2021/08/31 04:36:23;;;;;;;53.65;27.80;;;12.60;92.10;;;;;;5075593;28;20029;-73
2021/08/31 04:38:49;;;;;;;63.55;26.63;;;12.60;91.90;;;;;;5071567;28;20024;-73
2021/08/31 04:41:14;;;;;;;64.50;29.92;;;12.60;92.00;;;;;;5067202;28;20021;-74
2021/08/31 04:43:40;;;;;;;78.15;31.50;;;12.60;92.30;;;;;;5059992;28;20516;-74
2021/08/31 04:46:06;;;;;;;69.57;28.60;;;12.60;92.30;;;;;;5073564;28;20060;-74
2021/08/31 04:48:32;;;;;;;46.58;25.85;;;12.60;92.20;;;;;;5074041;28;20032;-74
2021/08/31 04:50:58;;;;;;;45.67;25.50;;;12.60;92.00;;;;;;5061433;28;20044;-74
2021/08/31 04:53:23;;;;;;;52.83;26.40;;;12.60;91.70;;;;;;5073798;28;20451;-74
2021/08/31 04:55:49;;;;;;;45.22;24.58;;;12.60;92.00;;;;;;5071777;28;20032;-73
2021/08/31 04:58:15;;;;;;;50.72;25.30;;;12.60;91.90;;;;;;5073050;28;20016;-74
2021/08/31 05:00:41;;;;;;;49.97;25.65;;;12.70;91.90;;;;;;5069309;28;20036;-74
2021/08/31 05:03:07;;;;;;;37.67;22.13;;;12.70;91.80;;;;;;5065436;28;20025;-74
2021/08/31 05:05:33;;;;;;;41.55;24.08;;;12.70;92.00;;;;;;5075266;28;20135;-74
2021/08/31 05:07:58;;;;;;;48.45;25.27;;;12.60;92.30;;;;;;5074621;28;20033;-74
2021/08/31 05:10:24;;;;;;;50.35;25.08;;;12.60;92.20;;;;;;5070714;28;20029;-73
2021/08/31 05:12:50;;;;;;;39.17;22.20;;;12.60;92.30;;;;;;5072174;28;20323;-74
2021/08/31 05:15:16;;;;;;;38.15;21.88;;;12.70;92.20;;;;;;5058505;28;20037;-74
2021/08/31 05:17:42;;;;;;;36.22;22.13;;;12.70;92.20;;;;;;5072142;28;20027;-74
2021/08/31 05:20:08;;;;;;;41.47;22.15;;;12.60;92.20;;;;;;5067289;28;20025;-74
2021/08/31 05:22:37;;;;;;;37.33;22.50;;;12.60;92.50;;;;;;5066564;28;20033;-74
2021/08/31 05:25:04;;;;;;;38.10;20.90;;;12.70;92.60;;;;;;5063892;28;20036;-74
2021/08/31 05:27:30;;;;;;;32.92;19.80;;;12.70;92.80;;;;;;5068124;28;20032;-73
2021/08/31 05:29:56;;;;;;;34.13;20.70;;;12.60;92.80;;;;;;5068590;28;20115;-73
2021/08/31 05:32:22;;;;;;;47.40;22.23;;;12.60;93.00;;;;;;5066521;28;20513;-73
2021/08/31 05:34:48;;;;;;;33.90;19.40;;;12.70;93.20;;;;;;5072784;28;20025;-73
2021/08/31 05:37:13;;;;;;;39.30;22.98;;;12.70;93.20;;;;;;5069861;28;20023;-74
2021/08/31 05:39:39;;;;;;;40.45;23.58;;;12.70;93.50;;;;;;5064683;28;20333;-73
2021/08/31 05:42:10;;;;;;;33.25;20.70;;;12.70;93.50;;;;;;5075103;28;20035;-74
2021/08/31 05:44:37;;;;;;;41.35;22.83;;;12.80;93.90;;;;;;5074995;28;20882;-74
2021/08/31 05:47:04;;;;;;;37.35;20.77;;;12.80;93.90;;;;;;5068680;28;20021;-74
2021/08/31 05:49:30;;;;;;;41.17;23.00;;;12.80;93.90;;;;;;5060541;28;20029;-73
2021/08/31 05:51:57;;;;;;;41.15;22.95;;;12.80;94.10;;;;;;5065596;28;20020;-74
2021/08/31 05:54:26;;;;;;;37.65;22.52;;;12.90;94.10;;;;;;5071354;28;20111;-74
2021/08/31 05:56:52;;;;;;;36.10;21.83;;;12.90;94.60;;;;;;5066651;28;20111;-74
2021/08/31 05:59:21;;;;;;;33.03;20.98;;;12.90;94.10;;;;;;5058356;28;20048;-73
2021/08/31 06:01:47;;;;;;;28.90;18.38;;;13.00;94.20;;;;;;5058345;28;20032;-74
2021/08/31 06:04:13;;;;;;;32.42;19.10;;;12.90;95.30;;;;;;5059348;28;20029;-73
2021/08/31 06:06:39;;;;;;;34.90;20.67;;;12.90;95.20;;;;;;5070023;28;20303;-73
2021/08/31 06:09:13;;;;;;;34.88;21.35;;;12.90;95.80;;;;;;5057216;28;20094;-73
2021/08/31 06:11:40;;;;;;;28.83;19.27;;;13.00;95.70;;;;;;5058466;28;20036;-73
2021/08/31 06:14:06;;;;;;;32.78;19.13;;;13.00;95.70;;;;;;5074123;28;20107;-73
2021/08/31 06:16:33;;;;;;;39.30;21.42;;;13.00;96.40;;;;;;5078290;28;20031;-73
2021/08/31 06:18:59;;;;;;;35.67;21.77;;;12.90;96.90;;;;;;5077955;28;20021;-74
2021/08/31 06:21:25;;;;;;;34.22;21.25;;;12.90;96.40;;;;;;5076799;28;20067;-73
2021/08/31 06:23:51;;;;;;;31.92;19.77;;;12.90;96.90;;;;;;5075723;28;20071;-72
2021/08/31 06:26:16;;;;;;;38.25;22.73;;;13.00;96.70;;;;;;5077966;28;20020;-73
2021/08/31 06:28:42;;;;;;;33.97;20.42;;;12.90;97.20;;;;;;5077897;28;20024;-72
2021/08/31 06:31:08;;;;;;;35.58;21.27;;;12.90;96.90;;;;;;5077605;28;20073;-72
2021/08/31 06:33:33;;;;;;;33.35;21.27;;;13.00;97.20;;;;;;5076905;28;20032;-74
2021/08/31 06:35:59;;;;;;;36.30;21.85;;;12.90;97.40;;;;;;5077550;28;20032;-74
2021/08/31 06:38:25;;;;;;;34.78;20.63;;;12.90;97.60;;;;;;5077450;28;20031;-74
2021/08/31 06:40:50;;;;;;;34.35;21.85;;;12.90;97.30;;;;;;5076546;28;20353;-74
2021/08/31 06:43:16;;;;;;;35.60;20.30;;;13.00;97.50;;;;;;5077370;28;20032;-74
2021/08/31 06:45:42;;;;;;;31.30;20.42;;;12.90;97.60;;;;;;5077720;28;20039;-74
2021/08/31 06:48:07;;;;;;;35.60;21.48;;;12.90;97.60;;;;;;5077511;28;20020;-74
2021/08/31 06:50:33;;;;;;;35.03;20.70;;;13.00;97.90;;;;;;5076411;28;20035;-73
2021/08/31 06:52:59;;;;;;;35.50;21.13;;;12.90;97.70;;;;;;5077356;28;20030;-73
2021/08/31 06:55:25;;;;;;;35.35;21.02;;;13.00;97.70;;;;;;5075271;28;20466;-74
2021/08/31 06:57:51;;;;;;;33.90;20.42;;;12.90;97.80;;;;;;5077059;28;20093;-73
2021/08/31 07:00:20;;;;;;;32.92;20.08;;;13.00;98.00;;;;;;5059690;28;20036;-73
2021/08/31 07:02:45;;;;;;;34.08;21.25;;;13.00;98.00;;;;;;5069216;28;20417;-73
2021/08/31 07:05:11;;;;;;;28.15;19.58;;;13.00;98.00;;;;;;5077334;28;20101;-74
2021/08/31 07:07:40;;;;;;;34.00;21.00;;;13.10;97.90;;;;;;5077304;28;20032;-73
2021/08/31 07:10:06;;;;;;;30.30;18.65;;;13.20;98.00;;;;;;5076180;28;20079;-73
2021/08/31 07:12:34;;;;;;;27.67;18.40;;;13.20;98.00;;;;;;5076634;28;20024;-73
2021/08/31 07:15:00;;;;;;;27.73;19.00;;;13.30;98.00;;;;;;5067445;28;20024;-74
2021/08/31 07:17:26;;;;;;;25.83;17.40;;;13.30;98.00;;;;;;5065485;28;20406;-73
2021/08/31 07:19:52;;;;;;;22.77;16.48;;;13.30;98.00;;;;;;5057066;28;20055;-74
2021/08/31 07:22:20;;;;;;;22.60;15.57;;;13.50;98.00;;;;;;5068084;28;20060;-73
2021/08/31 07:24:46;;;;;;;18.25;12.75;;;13.70;98.00;;;;;;5074345;28;20099;-73
2021/08/31 07:27:14;;;;;;;20.88;13.70;;;13.90;98.00;;;;;;5066244;28;20060;-74
2021/08/31 07:29:40;;;;;;;21.63;13.20;;;13.90;98.00;;;;;;5067164;28;20402;-73
2021/08/31 07:32:06;;;;;;;24.35;13.85;;;13.90;98.00;;;;;;5072907;28;20033;-74
2021/08/31 07:34:32;;;;;;;21.27;13.65;;;13.80;98.00;;;;;;5059266;28;20111;-74
2021/08/31 07:36:57;;;;;;;21.00;12.98;;;13.90;98.00;;;;;;5067272;28;20099;-74
2021/08/31 07:39:23;;;;;;;19.30;12.48;;;13.90;98.00;;;;;;5075523;28;20029;-73
2021/08/31 07:41:49;;;;;;;17.77;11.63;;;13.90;98.00;;;;;;5072889;28;20036;-74
2021/08/31 07:44:15;;;;;;;18.45;12.10;;;13.90;98.00;;;;;;5075152;28;20032;-74
2021/08/31 07:46:46;;;;;;;16.15;10.55;;;13.90;98.00;;;;;;5063291;28;20040;-74
2021/08/31 07:49:14;;;;;;;17.85;11.93;;;13.90;98.00;;;;;;5073193;28;20450;-74
2021/08/31 07:51:41;;;;;;;17.85;11.93;;;14.00;98.00;;;;;;5071978;28;20051;-74
2021/08/31 07:54:08;;;;;;;18.38;11.20;;;14.20;98.00;;;;;;5069575;28;20035;-74
2021/08/31 07:56:34;;;;;;;22.08;13.23;;;14.40;98.00;;;;;;5073436;28;20371;-74
2021/08/31 07:59:00;;;;;;;18.83;12.32;;;14.50;98.00;;;;;;5068493;28;20024;-73
2021/08/31 08:01:25;;;;;;;15.98;11.73;;;14.70;98.00;;;;;;5072993;28;20043;-74
2021/08/31 08:03:51;;;;;;;20.10;11.50;;;14.70;98.00;;;;;;5075921;28;20070;-74
2021/08/31 08:06:17;;;;;;;18.95;10.38;;;14.60;98.00;;;;;;5076118;28;20076;-73
2021/08/31 08:08:42;;;;;;;18.08;13.20;;;14.50;98.00;;;;;;5075185;28;20793;-73
2021/08/31 08:11:08;;;;;;;21.23;13.25;;;14.50;98.00;;;;;;5075751;28;20328;-74
2021/08/31 08:13:33;;;;;;;19.25;13.27;;;14.40;98.00;;;;;;5075579;28;20448;-73
2021/08/31 08:15:59;;;;;;;18.40;13.02;;;14.50;98.00;;;;;;5071118;28;20326;-73
2021/08/31 08:18:25;;;;;;;21.45;11.65;;;14.50;98.00;;;;;;5065292;28;20071;-73
2021/08/31 08:20:50;;;;;;;21.23;12.63;;;14.50;98.00;;;;;;5056409;28;20441;-74
2021/08/31 08:23:16;;;;;;;17.70;10.95;;;14.40;98.00;;;;;;5059861;28;20107;-73
2021/08/31 08:25:43;;;;;;;15.18;9.70;;;14.30;98.00;;;;;;5055383;28;20029;-73
2021/08/31 08:28:09;;;;;;;16.30;10.10;;;14.40;98.00;;;;;;5065500;28;20290;-73
2021/08/31 08:30:35;;;;;;;15.02;9.20;;;14.60;98.00;;;;;;5058573;28;20043;-73
2021/08/31 08:33:01;;;;;;;13.95;9.63;;;14.70;98.00;;;;;;5056916;28;20071;-71
2021/08/31 08:35:26;;;;;;;12.65;8.68;;;14.90;98.00;;;;;;5063811;28;20024;-74
2021/08/31 08:37:52;;;;;;;12.15;8.27;;;15.10;98.00;;;;;;5076109;28;20024;-74
2021/08/31 08:40:19;;;;;;;11.32;7.95;;;15.40;98.00;;;;;;5074763;28;20025;-72
2021/08/31 08:42:45;;;;;;;12.48;7.80;;;15.70;98.00;;;;;;5075982;28;20283;-74
2021/08/31 08:45:11;;;;;;;11.25;7.53;;;16.20;98.00;;;;;;5062265;28;20064;-73
2021/08/31 08:47:37;;;;;;;11.80;6.88;;;16.40;98.00;;;;;;5057953;28;20029;-73
2021/08/31 08:50:03;;;;;;;10.48;6.50;;;16.60;98.00;;;;;;5057168;28;20029;-72
2021/08/31 08:52:33;;;;;;;10.38;6.38;;;16.70;98.00;;;;;;5066636;28;20082;-72
2021/08/31 08:55:07;;;;;;;10.95;7.30;;;16.90;98.00;;;;;;5059251;28;20325;-72
2021/08/31 08:57:32;;;;;;;10.25;6.72;;;17.10;98.00;;;;;;5056019;28;20162;-72
2021/08/31 08:59:58;;;;;;;9.35;5.50;;;17.10;97.90;;;;;;5068239;28;20417;-73
2021/08/31 09:02:40;;;;;;;9.45;6.43;;;17.00;97.50;;;;;;5075596;28;20099;-72
2021/08/31 09:05:08;;;;;;;10.73;7.05;;;16.80;97.80;;;;;;5073841;28;20053;-73
2021/08/31 09:07:39;;;;;;;11.02;6.68;;;16.70;98.00;;;;;;5056158;28;20029;-73
2021/08/31 09:10:17;;;;;;;9.27;5.93;;;16.70;98.00;;;;;;5069096;28;20058;-73
2021/08/31 09:12:46;;;;;;;9.95;5.63;;;16.80;97.80;;;;;;5075617;28;20028;-73
2021/08/31 09:15:34;;;;;;;11.35;6.20;;;17.00;96.90;;;;;;5067219;28;20032;-72
2021/08/31 09:18:06;;;;;;;9.30;6.30;;;17.20;97.90;;;;;;5075484;28;20028;-71
2021/08/31 09:20:34;;;;;;;9.57;6.57;;;17.60;96.70;;;;;;5074591;28;20401;-72
2021/08/31 09:22:59;;;;;;;10.02;6.03;;;17.70;96.80;;;;;;5076204;28;20024;-71
2021/08/31 09:25:43;;;;;;;8.27;5.45;;;18.20;96.50;;;;;;5064310;28;20041;-72
2021/08/31 09:28:23;;;;;;;9.20;6.07;;;18.70;94.80;;;;;;5078182;28;20413;-73
2021/08/31 09:31:02;;;;;;;9.95;6.40;;;18.70;94.00;;;;;;5066844;28;20025;-73
2021/08/31 09:33:30;;;;;;;9.80;5.22;;;18.60;93.50;;;;;;5060624;28;20020;-73
2021/08/31 09:36:10;;;;;;;11.70;6.28;;;18.50;94.20;;;;;;5057932;28;20037;-73
2021/08/31 09:38:54;;;;;;;8.23;5.38;;;18.70;93.70;;;;;;5074030;28;20017;-73
2021/08/31 09:41:29;;;;;;;;;;;18.90;92.20;;;;;;5074649;28;20028;-73
2021/08/31 09:43:56;;;;;;;9.52;6.47;;;18.70;92.60;;;;;;5059348;28;20217;-72
2021/08/31 09:46:21;;;;;;;10.07;6.63;;;18.60;93.00;;;;;;5063625;28;20159;-72
2021/08/31 09:48:47;;;;;;;8.35;5.28;;;18.40;92.90;;;;;;5059670;28;20372;-73
2021/08/31 09:51:14;;;;;;;9.60;6.05;;;18.50;94.10;;;;;;5070461;28;20043;-73
2021/08/31 09:53:41;;;;;;;9.30;5.40;;;18.60;93.40;;;;;;5058679;28;20079;-72
2021/08/31 09:56:14;;;;;;;7.20;4.70;;;18.90;92.60;;;;;;5073262;28;20032;-72
2021/08/31 09:58:42;;;;;;;9.05;5.57;;;19.40;91.80;;;;;;5074437;28;20056;-72
2021/08/31 10:01:08;;;;;;;9.05;4.90;;;19.10;91.00;;;;;;5057514;28;20107;-72
2021/08/31 10:03:35;;;;;;;9.63;5.40;;;19.10;91.40;;;;;;5058433;28;20021;-73
2021/08/31 10:06:02;;;;;;;10.05;6.22;;;19.20;90.90;;;;;;5059496;28;20450;-72
2021/08/31 10:08:32;;;;;;;9.02;5.85;;;19.10;91.60;;;;;;5057285;28;20131;-72
2021/08/31 10:11:02;;;;;;;8.20;5.50;;;18.90;91.10;;;;;;5059037;28;20107;-72
2021/08/31 10:13:30;;;;;;;7.72;5.20;;;18.70;91.40;;;;;;5059744;28;20462;-72
2021/08/31 10:15:57;;;;;;;9.00;5.22;;;18.80;91.50;;;;;;5076980;28;20032;-72
2021/08/31 10:18:26;;;;;;;8.13;4.85;;;18.60;92.90;;;;;;5074719;28;20459;-72
2021/08/31 10:20:57;;;;;;;8.07;4.80;;;18.70;91.70;;;;;;5077435;28;20025;-72
2021/08/31 10:23:28;;;;;;;7.90;4.97;;;19.30;90.30;;;;;;5065674;28;20433;-72
2021/08/31 10:26:23;;;;;;;7.63;5.05;;;20.20;89.00;;;;;;5073510;28;20037;-72
2021/08/31 10:28:51;;;;;;;9.82;5.22;;;20.60;87.60;;;;;;5073116;28;20433;-72
2021/08/31 10:31:29;;;;;;;8.35;4.65;;;21.40;86.80;;;;;;5071869;28;20054;-72
2021/08/31 10:33:55;;;;;;;8.90;4.30;;;22.40;83.80;;;;;;5072940;28;20036;-72
2021/08/31 10:36:35;;;;;;;8.00;5.35;;;23.30;79.40;;;;;;5072279;28;20033;-72
2021/08/31 10:39:03;;;;;;;8.60;4.85;;;22.60;79.40;;;;;;5071663;28;20055;-72
2021/08/31 10:41:47;;;;;;;9.35;4.90;;;21.80;82.60;;;;;;5072500;28;20020;-72
2021/08/31 10:44:35;;;;;;;7.55;4.68;;;21.30;83.20;;;;;;5073229;28;20043;-72
2021/08/31 10:47:08;;;;;;;8.90;4.60;;;20.50;84.30;;;;;;5067086;28;20447;-72
2021/08/31 10:49:56;;;;;;;6.75;3.72;;;20.00;85.50;;;;;;5076923;28;20032;-72
2021/08/31 10:52:35;;;;;;;8.38;4.20;;;21.50;83.20;;;;;;5066198;28;20028;-72
2021/08/31 10:55:01;;;;;;;8.55;4.38;;;22.60;78.90;;;;;;5064873;28;20119;-72
2021/08/31 10:57:36;;;;;;;8.13;4.82;;;22.70;80.80;;;;;;5075795;28;20025;-72
2021/08/31 11:00:21;;;;;;;6.78;4.20;;;23.00;79.40;;;;;;5067849;28;20027;-72
2021/08/31 11:02:50;;;;;;;7.53;4.47;;;24.00;78.30;;;;;;5073557;28;20055;-72
2021/08/31 11:05:18;;;;;;;7.07;4.28;;;24.00;75.50;;;;;;5070024;28;20338;-72
2021/08/31 11:08:07;;;;;;;6.93;4.35;;;23.60;76.40;;;;;;5069409;28;20027;-72
2021/08/31 11:10:38;;;;;;;8.82;4.88;;;23.10;76.80;;;;;;5065877;28;20028;-72
2021/08/31 11:13:11;;;;;;;7.55;4.70;;;22.30;78.90;;;;;;5072914;28;20360;-72
2021/08/31 11:15:37;;;;;;;7.97;4.93;;;21.20;81.10;;;;;;5066878;28;20465;-72
2021/08/31 11:18:08;;;;;;;8.85;5.70;;;20.20;84.00;;;;;;5066217;28;20044;-72
2021/08/31 11:20:36;;;;;;;8.85;5.18;;;19.10;87.90;;;;;;5072867;28;20036;-72
2021/08/31 11:23:19;;;;;;;9.02;6.00;;;18.50;89.80;;;;;;5074754;28;20017;-72
2021/08/31 11:25:55;;;;;;;9.90;5.43;;;18.30;92.80;;;;;;5074343;28;20060;-72
2021/08/31 11:28:24;;;;;;;9.60;5.65;;;18.10;91.60;;;;;;5072377;28;20028;-72
2021/08/31 11:30:58;;;;;;;8.85;5.60;;;17.90;93.00;;;;;;5072570;28;20033;-72
2021/08/31 11:33:41;;;;;;;12.30;5.68;;;17.60;92.80;;;;;;5071972;28;20107;-72
2021/08/31 11:36:10;;;;;;;9.23;5.45;;;17.90;93.00;;;;;;5072390;28;20040;-72
2021/08/31 11:38:37;;;;;;;9.52;5.53;;;18.00;92.70;;;;;;5070482;28;20626;-72
2021/08/31 11:41:24;;;;;;;8.80;5.07;;;18.20;92.00;;;;;;5071910;28;20021;-72
2021/08/31 11:44:01;;;;;;;9.50;5.80;;;18.30;91.80;;;;;;5071526;28;20027;-72
2021/08/31 11:46:33;;;;;;;9.93;5.47;;;18.30;91.40;;;;;;5071087;28;20047;-72
2021/08/31 11:49:15;;;;;;;11.93;5.88;;;18.20;91.70;;;;;;5071645;28;20032;-72
2021/08/31 11:52:02;;;;;;;8.50;5.45;;;18.00;92.90;;;;;;5069977;28;20028;-72
2021/08/31 11:54:31;;;;;;;8.77;5.35;;;18.20;92.00;;;;;;5068292;28;20048;-72
2021/08/31 11:57:00;;;;;;;10.10;5.18;;;18.30;91.60;;;;;;5071725;28;20025;-72
2021/08/31 11:59:42;;;;;;;7.82;5.18;;;18.30;92.20;;;;;;5071395;28;20146;-72
2021/08/31 12:02:14;;;;;;;9.38;5.35;;;18.50;90.80;;;;;;5070447;28;20024;-72
2021/08/31 12:04:42;;;;;;;7.30;4.50;;;18.80;90.00;;;;;;5070715;28;20051;-72
2021/08/31 12:07:10;;;;;;;8.43;5.15;;;18.80;89.70;;;;;;5071320;28;20029;-72
2021/08/31 12:09:42;;;;;;;10.05;5.55;;;18.80;88.40;;;;;;5070068;28;20032;-72
2021/08/31 12:12:08;;;;;;;8.55;5.22;;;18.60;88.10;;;;;;5071371;28;20025;-72
2021/08/31 12:14:34;;;;;;;9.13;5.38;;;18.70;89.00;;;;;;5071628;28;20031;-71
2021/08/31 12:17:00;;;;;;;9.20;5.60;;;18.80;90.30;;;;;;5071618;28;20028;-71
2021/08/31 12:19:27;;;;;;;9.13;5.03;;;19.10;89.10;;;;;;5071875;28;20051;-71
2021/08/31 12:22:13;;;;;;;9.85;5.72;;;19.20;89.50;;;;;;5071478;28;20033;-71
2021/08/31 12:24:42;;;;;;;8.52;5.60;;;18.90;88.70;;;;;;5069726;28;20017;-72
2021/08/31 12:27:15;;;;;;;7.47;5.00;;;18.80;88.40;;;;;;5072386;28;20148;-72
2021/08/31 12:29:53;;;;;;;8.70;5.15;;;18.70;90.10;;;;;;5071258;28;20016;-72
2021/08/31 12:32:28;;;;;;;8.50;5.05;;;19.20;89.00;;;;;;5072413;28;20040;-72
2021/08/31 12:34:57;;;;;;;7.55;4.80;;;19.20;88.50;;;;;;5069981;28;20028;-72
2021/08/31 12:37:32;;;;;;;8.30;4.55;;;19.30;89.70;;;;;;5070623;28;20077;-72
2021/08/31 12:40:21;;;;;;;6.22;3.90;;;19.20;86.60;;;;;;5070250;28;20054;-72
2021/08/31 12:42:51;;;;;;;8.65;4.57;;;19.10;87.00;;;;;;5069927;28;20023;-72